sensor_id;sensor_type;location;lat;lon;timestamp;pressure;altitude;pressure_sealevel;temperature;humidity
64544;BME280;50936;51.660;5.616;2023-02-15T00:02:26;102549.59;;;3.12;100.00
64544;BME280;50936;51.660;5.616;2023-02-15T00:04:53;102547.88;;;3.04;100.00
64544;BME280;50936;51.660;5.616;2023-02-15T00:07:22;102547.91;;;3.01;100.00
64544;BME280;50936;51.660;5.616;2023-02-15T00:09:49;102543.53;;;2.94;100.00
64544;BME280;50936;51.660;5.616;2023-02-15T00:12:16;102543.59;;;2.88;100.00
64544;BME280;50936;51.660;5.616;2023-02-15T00:14:43;102540.97;;;2.82;100.00
64544;BME280;50936;51.660;5.616;2023-02-15T00:17:10;102545.50;;;2.77;100.00
64544;BME280;50936;51.660;5.616;2023-02-15T00:19:37;102541.06;;;2.76;100.00
64544;BME280;50936;51.660;5.616;2023-02-15T00:22:04;102542.84;;;2.74;100.00
64544;BME280;50936;51.660;5.616;2023-02-15T00:24:31;102536.66;;;2.72;100.00
64544;BME280;50936;51.660;5.616;2023-02-15T00:26:58;102536.66;;;2.70;100.00
64544;BME280;50936;51.660;5.616;2023-02-15T00:29:25;102542.00;;;2.70;100.00
64544;BME280;50936;51.660;5.616;2023-02-15T00:31:53;102537.59;;;2.67;100.00
64544;BME280;50936;51.660;5.616;2023-02-15T00:34:25;102534.03;;;2.65;100.00
64544;BME280;50936;51.660;5.616;2023-02-15T00:36:53;102526.06;;;2.62;100.00
64544;BME280;50936;51.660;5.616;2023-02-15T00:39:20;102517.19;;;2.60;100.00
64544;BME280;50936;51.660;5.616;2023-02-15T00:41:48;102522.53;;;2.60;100.00
64544;BME280;50936;51.660;5.616;2023-02-15T00:44:16;102516.31;;;2.58;100.00
64544;BME280;50936;51.660;5.616;2023-02-15T00:46:44;102518.97;;;2.60;100.00
64544;BME280;50936;51.660;5.616;2023-02-15T00:49:11;102517.22;;;2.57;100.00
64544;BME280;50936;51.660;5.616;2023-02-15T00:51:38;102509.22;;;2.57;100.00
64544;BME280;50936;51.660;5.616;2023-02-15T00:54:06;102516.31;;;2.58;100.00
64544;BME280;50936;51.660;5.616;2023-02-15T00:56:33;102509.19;;;2.60;100.00
64544;BME280;50936;51.660;5.616;2023-02-15T00:59:00;102498.53;;;2.60;100.00
64544;BME280;50936;51.660;5.616;2023-02-15T01:01:27;102503.88;;;2.57;100.00
64544;BME280;50936;51.660;5.616;2023-02-15T01:03:54;102495.03;;;2.52;100.00
64544;BME280;50936;51.660;5.616;2023-02-15T01:06:21;102489.72;;;2.49;100.00
64544;BME280;50936;51.660;5.616;2023-02-15T01:08:48;102484.44;;;2.46;100.00
64544;BME280;50936;51.660;5.616;2023-02-15T01:11:17;102490.66;;;2.43;100.00
64544;BME280;50936;51.660;5.616;2023-02-15T01:13:55;102489.81;;;2.40;100.00
64544;BME280;50936;51.660;5.616;2023-02-15T01:16:25;102490.72;;;2.37;100.00
64544;BME280;50936;51.660;5.616;2023-02-15T01:18:54;102480.94;;;2.36;100.00
64544;BME280;50936;51.660;5.616;2023-02-15T01:21:23;102478.28;;;2.36;100.00
64544;BME280;50936;51.660;5.616;2023-02-15T01:23:51;102480.97;;;2.35;100.00
64544;BME280;50936;51.660;5.616;2023-02-15T01:26:19;102480.06;;;2.34;100.00
64544;BME280;50936;51.660;5.616;2023-02-15T01:28:46;102476.53;;;2.32;100.00
64544;BME280;50936;51.660;5.616;2023-02-15T01:31:15;102472.09;;;2.33;100.00
64544;BME280;50936;51.660;5.616;2023-02-15T01:33:45;102471.22;;;2.30;100.00
64544;BME280;50936;51.660;5.616;2023-02-15T01:36:13;102466.81;;;2.29;100.00
64544;BME280;50936;51.660;5.616;2023-02-15T01:38:41;102468.56;;;2.30;100.00
64544;BME280;50936;51.660;5.616;2023-02-15T01:41:09;102465.00;;;2.31;100.00
64544;BME280;50936;51.660;5.616;2023-02-15T01:46:33;102462.41;;;2.25;100.00
64544;BME280;50936;51.660;5.616;2023-02-15T01:49:13;102467.75;;;2.22;100.00
64544;BME280;50936;51.660;5.616;2023-02-15T01:51:44;102468.69;;;2.18;100.00
64544;BME280;50936;51.660;5.616;2023-02-15T01:54:21;102469.59;;;2.14;100.00
64544;BME280;50936;51.660;5.616;2023-02-15T01:56:59;102472.28;;;2.11;100.00
64544;BME280;50936;51.660;5.616;2023-02-15T01:59:32;102455.44;;;2.07;100.00
64544;BME280;50936;51.660;5.616;2023-02-15T02:02:02;102464.34;;;2.03;100.00
64544;BME280;50936;51.660;5.616;2023-02-15T02:04:45;102458.13;;;2.01;100.00
64544;BME280;50936;51.660;5.616;2023-02-15T02:07:27;102458.19;;;2.00;100.00
64544;BME280;50936;51.660;5.616;2023-02-15T02:09:59;102455.53;;;1.98;100.00
64544;BME280;50936;51.660;5.616;2023-02-15T02:12:28;102447.53;;;1.97;100.00
64544;BME280;50936;51.660;5.616;2023-02-15T02:14:56;102439.53;;;1.95;100.00
64544;BME280;50936;51.660;5.616;2023-02-15T02:32:01;102433.50;;;1.73;100.00
64544;BME280;50936;51.660;5.616;2023-02-15T02:35:23;102441.53;;;1.65;100.00
64544;BME280;50936;51.660;5.616;2023-02-15T02:48:40;102423.03;;;1.47;100.00
64544;BME280;50936;51.660;5.616;2023-02-15T02:51:07;102410.59;;;1.44;100.00
64544;BME280;50936;51.660;5.616;2023-02-15T02:53:34;102408.84;;;1.43;100.00
64544;BME280;50936;51.660;5.616;2023-02-15T02:56:33;102405.31;;;1.38;100.00
64544;BME280;50936;51.660;5.616;2023-02-15T02:59:15;102407.13;;;1.36;100.00
64544;BME280;50936;51.660;5.616;2023-02-15T03:01:59;102408.91;;;1.34;100.00
64544;BME280;50936;51.660;5.616;2023-02-15T03:04:43;102404.47;;;1.33;100.00
64544;BME280;50936;51.660;5.616;2023-02-15T03:07:20;102395.59;;;1.29;100.00
64544;BME280;50936;51.660;5.616;2023-02-15T03:09:51;102400.06;;;1.29;100.00
64544;BME280;50936;51.660;5.616;2023-02-15T03:12:24;102407.13;;;1.30;100.00
64544;BME280;50936;51.660;5.616;2023-02-15T03:15:16;102402.72;;;1.30;100.00
64544;BME280;50936;51.660;5.616;2023-02-15T03:17:53;102398.25;;;1.31;100.00
64544;BME280;50936;51.660;5.616;2023-02-15T03:20:27;102384.97;;;1.31;100.00
64544;BME280;50936;51.660;5.616;2023-02-15T03:23:06;102392.94;;;1.28;100.00
64544;BME280;50936;51.660;5.616;2023-02-15T03:25:42;102391.22;;;1.24;100.00
64544;BME280;50936;51.660;5.616;2023-02-15T03:28:15;102385.88;;;1.22;100.00
64544;BME280;50936;51.660;5.616;2023-02-15T03:30:52;102387.69;;;1.22;100.00
64544;BME280;50936;51.660;5.616;2023-02-15T03:33:26;102377.91;;;1.22;100.00
64544;BME280;50936;51.660;5.616;2023-02-15T03:36:08;102371.69;;;1.25;100.00
64544;BME280;50936;51.660;5.616;2023-02-15T03:38:46;102377.03;;;1.25;100.00
64544;BME280;50936;51.660;5.616;2023-02-15T03:41:32;102371.69;;;1.25;100.00
64544;BME280;50936;51.660;5.616;2023-02-15T03:44:13;102368.13;;;1.26;100.00
64544;BME280;50936;51.660;5.616;2023-02-15T03:46:56;102366.38;;;1.25;100.00
64544;BME280;50936;51.660;5.616;2023-02-15T03:49:38;102368.13;;;1.23;100.00
64544;BME280;50936;51.660;5.616;2023-02-15T03:52:14;102357.47;;;1.23;100.00
64544;BME280;50936;51.660;5.616;2023-02-15T03:54:43;102361.06;;;1.22;100.00
64544;BME280;50936;51.660;5.616;2023-02-15T03:57:20;102357.53;;;1.20;100.00
64544;BME280;50936;51.660;5.616;2023-02-15T04:00:17;102358.44;;;1.14;100.00
64544;BME280;50936;51.660;5.616;2023-02-15T04:05:37;102360.25;;;1.07;100.00
64544;BME280;50936;51.660;5.616;2023-02-15T04:08:04;102357.59;;;1.07;100.00
64544;BME280;50936;51.660;5.616;2023-02-15T04:10:31;102357.59;;;1.07;100.00
64544;BME280;50936;51.660;5.616;2023-02-15T04:13:16;102362.91;;;1.04;100.00
64544;BME280;50936;51.660;5.616;2023-02-15T04:15:43;102361.16;;;1.02;100.00
64544;BME280;50936;51.660;5.616;2023-02-15T04:21:20;102359.44;;;0.99;100.00
64544;BME280;50936;51.660;5.616;2023-02-15T04:24:07;102364.75;;;0.99;100.00
64544;BME280;50936;51.660;5.616;2023-02-15T04:26:54;102365.63;;;0.95;100.00
64544;BME280;50936;51.660;5.616;2023-02-15T04:29:23;102360.34;;;0.89;100.00
64544;BME280;50936;51.660;5.616;2023-02-15T04:31:52;102362.16;;;0.84;100.00
64544;BME280;50936;51.660;5.616;2023-02-15T04:34:21;102357.75;;;0.80;100.00
64544;BME280;50936;51.660;5.616;2023-02-15T04:36:48;102356.88;;;0.74;100.00
64544;BME280;50936;51.660;5.616;2023-02-15T04:39:18;102356.00;;;0.72;100.00
64544;BME280;50936;51.660;5.616;2023-02-15T04:41:45;102358.66;;;0.71;100.00
64544;BME280;50936;51.660;5.616;2023-02-15T04:44:14;102353.34;;;0.71;100.00
64544;BME280;50936;51.660;5.616;2023-02-15T04:46:41;102354.22;;;0.74;100.00
64544;BME280;50936;51.660;5.616;2023-02-15T04:49:08;102348.88;;;0.77;100.00
64544;BME280;50936;51.660;5.616;2023-02-15T04:51:36;102347.97;;;0.83;100.00
64544;BME280;50936;51.660;5.616;2023-02-15T04:54:03;102342.66;;;0.83;100.00
64544;BME280;50936;51.660;5.616;2023-02-15T04:56:30;102345.31;;;0.85;100.00
64544;BME280;50936;51.660;5.616;2023-02-15T04:58:59;102344.41;;;0.86;100.00
64544;BME280;50936;51.660;5.616;2023-02-15T05:01:26;102336.41;;;0.86;100.00
64544;BME280;50936;51.660;5.616;2023-02-15T05:03:53;102336.41;;;0.86;100.00
64544;BME280;50936;51.660;5.616;2023-02-15T05:06:20;102328.44;;;0.86;100.00
64544;BME280;50936;51.660;5.616;2023-02-15T05:08:47;102327.56;;;0.84;100.00
64544;BME280;50936;51.660;5.616;2023-02-15T05:11:14;102328.47;;;0.83;100.00
64544;BME280;50936;51.660;5.616;2023-02-15T05:13:41;102329.34;;;0.82;100.00
64544;BME280;50936;51.660;5.616;2023-02-15T05:16:08;102327.59;;;0.81;100.00
64544;BME280;50936;51.660;5.616;2023-02-15T05:18:35;102331.13;;;0.80;100.00
64544;BME280;50936;51.660;5.616;2023-02-15T05:21:01;102328.47;;;0.78;100.00
64544;BME280;50936;51.660;5.616;2023-02-15T05:23:28;102326.69;;;0.79;100.00
64544;BME280;50936;51.660;5.616;2023-02-15T05:25:55;102330.28;;;0.77;100.00
64544;BME280;50936;51.660;5.616;2023-02-15T05:28:40;102319.63;;;0.76;100.00
64544;BME280;50936;51.660;5.616;2023-02-15T05:31:11;102322.28;;;0.74;100.00
64544;BME280;50936;51.660;5.616;2023-02-15T05:33:46;102324.94;;;0.77;100.00
64544;BME280;50936;51.660;5.616;2023-02-15T05:36:13;102323.16;;;0.76;100.00
64544;BME280;50936;51.660;5.616;2023-02-15T05:38:41;102322.28;;;0.77;100.00
64544;BME280;50936;51.660;5.616;2023-02-15T05:41:10;102324.94;;;0.76;100.00
64544;BME280;50936;51.660;5.616;2023-02-15T05:43:38;102324.03;;;0.79;100.00
64544;BME280;50936;51.660;5.616;2023-02-15T05:46:06;102322.28;;;0.77;100.00
64544;BME280;50936;51.660;5.616;2023-02-15T05:48:34;102329.41;;;0.75;100.00
64544;BME280;50936;51.660;5.616;2023-02-15T05:51:06;102319.63;;;0.76;100.00
64544;BME280;50936;51.660;5.616;2023-02-15T05:53:39;102323.16;;;0.78;100.00
64544;BME280;50936;51.660;5.616;2023-02-15T05:56:11;102323.16;;;0.76;100.00
64544;BME280;50936;51.660;5.616;2023-02-15T05:58:39;102327.59;;;0.77;100.00
64544;BME280;50936;51.660;5.616;2023-02-15T06:01:09;102329.41;;;0.75;100.00
64544;BME280;50936;51.660;5.616;2023-02-15T06:03:41;102322.28;;;0.71;100.00
64544;BME280;50936;51.660;5.616;2023-02-15T06:06:09;102318.75;;;0.69;100.00
64544;BME280;50936;51.660;5.616;2023-02-15T06:08:37;102320.56;;;0.67;100.00
64544;BME280;50936;51.660;5.616;2023-02-15T06:11:05;102324.13;;;0.63;100.00
64544;BME280;50936;51.660;5.616;2023-02-15T06:13:33;102326.78;;;0.62;100.00
64544;BME280;50936;51.660;5.616;2023-02-15T06:16:05;102332.97;;;0.62;100.00
64544;BME280;50936;51.660;5.616;2023-02-15T06:18:33;102330.34;;;0.61;100.00
64544;BME280;50936;51.660;5.616;2023-02-15T06:21:00;102327.69;;;0.59;100.00
64544;BME280;50936;51.660;5.616;2023-02-15T06:23:27;102327.69;;;0.59;100.00
64544;BME280;50936;51.660;5.616;2023-02-15T06:25:55;102326.78;;;0.60;100.00
64544;BME280;50936;51.660;5.616;2023-02-15T06:28:21;102329.47;;;0.57;100.00
64544;BME280;50936;51.660;5.616;2023-02-15T06:30:48;102322.38;;;0.57;100.00
64544;BME280;50936;51.660;5.616;2023-02-15T06:33:15;102322.38;;;0.56;100.00
64544;BME280;50936;51.660;5.616;2023-02-15T06:35:42;102318.84;;;0.54;100.00
64544;BME280;50936;51.660;5.616;2023-02-15T06:38:09;102329.47;;;0.51;100.00
64544;BME280;50936;51.660;5.616;2023-02-15T06:40:36;102319.75;;;0.50;100.00
64544;BME280;50936;51.660;5.616;2023-02-15T06:43:03;102325.94;;;0.49;100.00
64544;BME280;50936;51.660;5.616;2023-02-15T06:45:30;102333.06;;;0.50;100.00
64544;BME280;50936;51.660;5.616;2023-02-15T06:47:57;102328.59;;;0.49;100.00
64544;BME280;50936;51.660;5.616;2023-02-15T06:50:24;102329.53;;;0.48;100.00
64544;BME280;50936;51.660;5.616;2023-02-15T06:52:57;102320.63;;;0.46;100.00
64544;BME280;50936;51.660;5.616;2023-02-15T06:55:25;102319.75;;;0.45;100.00
64544;BME280;50936;51.660;5.616;2023-02-15T06:57:52;102318.88;;;0.45;100.00
64544;BME280;50936;51.660;5.616;2023-02-15T07:00:19;102319.75;;;0.45;100.00
64544;BME280;50936;51.660;5.616;2023-02-15T07:02:53;102318.88;;;0.45;100.00
64544;BME280;50936;51.660;5.616;2023-02-15T07:05:22;102322.41;;;0.47;100.00
64544;BME280;50936;51.660;5.616;2023-02-15T07:07:50;102307.34;;;0.49;100.00
64544;BME280;50936;51.660;5.616;2023-02-15T07:10:17;102302.94;;;0.48;100.00
64544;BME280;50936;51.660;5.616;2023-02-15T07:12:43;102304.69;;;0.52;100.00
64544;BME280;50936;51.660;5.616;2023-02-15T07:15:16;102304.69;;;0.52;100.00
64544;BME280;50936;51.660;5.616;2023-02-15T07:17:44;102303.78;;;0.56;100.00
64544;BME280;50936;51.660;5.616;2023-02-15T07:20:14;102294.00;;;0.58;100.00
64544;BME280;50936;51.660;5.616;2023-02-15T07:22:43;102299.31;;;0.61;100.00
64544;BME280;50936;51.660;5.616;2023-02-15T07:25:13;102300.19;;;0.65;100.00
64544;BME280;50936;51.660;5.616;2023-02-15T07:27:43;102295.75;;;0.68;100.00
64544;BME280;50936;51.660;5.616;2023-02-15T07:30:14;102294.84;;;0.71;100.00
64544;BME280;50936;51.660;5.616;2023-02-15T07:32:44;102290.38;;;0.74;100.00
64544;BME280;50936;51.660;5.616;2023-02-15T07:35:32;102299.22;;;0.76;100.00
64544;BME280;50936;51.660;5.616;2023-02-15T07:38:00;102302.75;;;0.79;100.00
64544;BME280;50936;51.660;5.616;2023-02-15T07:40:27;102301.88;;;0.83;100.00
64544;BME280;50936;51.660;5.616;2023-02-15T07:42:57;102297.38;;;0.88;100.00
64544;BME280;50936;51.660;5.616;2023-02-15T07:45:25;102300.03;;;0.92;100.00
64544;BME280;50936;51.660;5.616;2023-02-15T07:47:53;102292.91;;;0.99;100.00
64544;BME280;50936;51.660;5.616;2023-02-15T07:50:20;102295.53;;;1.02;100.00
64544;BME280;50936;51.660;5.616;2023-02-15T07:52:46;102289.31;;;1.06;100.00
64544;BME280;50936;51.660;5.616;2023-02-15T07:55:13;102291.94;;;1.12;100.00
64544;BME280;50936;51.660;5.616;2023-02-15T07:57:45;102292.78;;;1.14;100.00
64544;BME280;50936;51.660;5.616;2023-02-15T08:00:15;102291.88;;;1.19;100.00
64544;BME280;50936;51.660;5.616;2023-02-15T08:02:50;102297.16;;;1.25;100.00
64544;BME280;50936;51.660;5.616;2023-02-15T08:05:43;102282.94;;;1.26;100.00
64544;BME280;50936;51.660;5.616;2023-02-15T08:08:14;102278.47;;;1.32;100.00
64544;BME280;50936;51.660;5.616;2023-02-15T08:11:00;102284.66;;;1.36;100.00
64544;BME280;50936;51.660;5.616;2023-02-15T08:13:46;102287.25;;;1.41;100.00
64544;BME280;50936;51.660;5.616;2023-02-15T08:21:47;102273.84;;;1.54;100.00
64544;BME280;50936;51.660;5.616;2023-02-15T08:24:18;102275.56;;;1.62;100.00
64544;BME280;50936;51.660;5.616;2023-02-15T08:26:48;102271.09;;;1.65;100.00
64544;BME280;50936;51.660;5.616;2023-02-15T08:29:17;102275.47;;;1.71;100.00
64544;BME280;50936;51.660;5.616;2023-02-15T08:31:46;102276.22;;;1.84;100.00
64544;BME280;50936;51.660;5.616;2023-02-15T08:34:16;102271.69;;;1.93;100.00
64544;BME280;50936;51.660;5.616;2023-02-15T08:36:45;102269.78;;;2.05;100.00
64544;BME280;50936;51.660;5.616;2023-02-15T08:39:14;102271.47;;;2.12;100.00
64544;BME280;50936;51.660;5.616;2023-02-15T08:41:43;102272.31;;;2.16;100.00
64544;BME280;50936;51.660;5.616;2023-02-15T08:44:14;102257.16;;;2.19;100.00
64544;BME280;50936;51.660;5.616;2023-02-15T08:46:44;102262.41;;;2.27;100.00
64544;BME280;50936;51.660;5.616;2023-02-15T08:49:16;102259.66;;;2.35;100.00
64544;BME280;50936;51.660;5.616;2023-02-15T08:51:45;102256.88;;;2.44;100.00
64544;BME280;50936;51.660;5.616;2023-02-15T08:54:15;102248.78;;;2.52;100.00
64544;BME280;50936;51.660;5.616;2023-02-15T08:56:44;102255.69;;;2.65;100.00
64544;BME280;50936;51.660;5.616;2023-02-15T08:59:17;102250.25;;;2.71;100.00
64544;BME280;50936;51.660;5.616;2023-02-15T09:01:46;102259.94;;;2.80;100.00
64544;BME280;50936;51.660;5.616;2023-02-15T09:04:15;102262.44;;;2.91;100.00
64544;BME280;50936;51.660;5.616;2023-02-15T09:06:44;102257.91;;;2.97;100.00
64544;BME280;50936;51.660;5.616;2023-02-15T09:09:15;102256.91;;;3.04;100.00
64544;BME280;50936;51.660;5.616;2023-02-15T09:11:45;102257.63;;;3.16;100.00
64544;BME280;50936;51.660;5.616;2023-02-15T09:14:18;102259.28;;;3.23;100.00
64544;BME280;50936;51.660;5.616;2023-02-15T09:16:52;102251.09;;;3.34;100.00
64544;BME280;50936;51.660;5.616;2023-02-15T09:19:21;102256.34;;;3.40;100.00
64544;BME280;50936;51.660;5.616;2023-02-15T09:21:49;102253.53;;;3.47;100.00
64544;BME280;50936;51.660;5.616;2023-02-15T09:24:17;102256.00;;;3.58;100.00
64544;BME280;50936;51.660;5.616;2023-02-15T09:26:46;102246.94;;;3.69;100.00
64544;BME280;50936;51.660;5.616;2023-02-15T09:29:16;102249.50;;;3.73;100.00
64544;BME280;50936;51.660;5.616;2023-02-15T09:31:47;102252.13;;;3.76;100.00
64544;BME280;50936;51.660;5.616;2023-02-15T09:34:18;102250.19;;;3.84;100.00
64544;BME280;50936;51.660;5.616;2023-02-15T09:36:48;102250.88;;;3.96;100.00
64544;BME280;50936;51.660;5.616;2023-02-15T09:39:23;102242.69;;;4.03;100.00
64544;BME280;50936;51.660;5.616;2023-02-15T09:56:26;102238.56;;;4.73;100.00
64544;BME280;50936;51.660;5.616;2023-02-15T10:05:11;102234.88;;;5.14;100.00
64544;BME280;50936;51.660;5.616;2023-02-15T10:08:16;102242.53;;;5.31;100.00
64544;BME280;50936;51.660;5.616;2023-02-15T10:14:19;102250.28;;;5.76;100.00
64544;BME280;50936;51.660;5.616;2023-02-15T10:25:49;102243.09;;;7.01;100.00
64544;BME280;50936;51.660;5.616;2023-02-15T10:34:38;102246.09;;;7.71;100.00
64544;BME280;50936;51.660;5.616;2023-02-15T10:37:29;102254.22;;;7.95;100.00
64544;BME280;50936;51.660;5.616;2023-02-15T10:46:08;102236.84;;;8.76;100.00
64544;BME280;50936;51.660;5.616;2023-02-15T10:49:01;102234.06;;;9.01;99.94
64544;BME280;50936;51.660;5.616;2023-02-15T10:51:49;102248.56;;;9.19;99.15
64544;BME280;50936;51.660;5.616;2023-02-15T11:06:12;102227.84;;;10.03;92.45
64544;BME280;50936;51.660;5.616;2023-02-15T11:08:46;102218.28;;;10.17;91.63
64544;BME280;50936;51.660;5.616;2023-02-15T11:11:29;102217.38;;;10.37;89.68
64544;BME280;50936;51.660;5.616;2023-02-15T11:17:40;102220.53;;;10.85;88.06
64544;BME280;50936;51.660;5.616;2023-02-15T11:22:56;102229.19;;;11.10;84.19
64544;BME280;50936;51.660;5.616;2023-02-15T11:25:34;102222.25;;;11.05;82.87
64544;BME280;50936;51.660;5.616;2023-02-15T11:28:03;102216.41;;;10.95;84.77
64544;BME280;50936;51.660;5.616;2023-02-15T11:30:47;102218.16;;;10.96;86.10
64544;BME280;50936;51.660;5.616;2023-02-15T11:33:24;102214.88;;;11.08;85.04
64544;BME280;50936;51.660;5.616;2023-02-15T11:36:00;102206.28;;;11.17;84.45
64544;BME280;50936;51.660;5.616;2023-02-15T11:38:36;102202.47;;;11.22;81.92
64544;BME280;50936;51.660;5.616;2023-02-15T11:41:10;102193.88;;;11.31;81.21
64544;BME280;50936;51.660;5.616;2023-02-15T11:43:44;102185.16;;;11.43;81.72
64544;BME280;50936;51.660;5.616;2023-02-15T11:46:19;102177.56;;;11.67;79.67
64544;BME280;50936;51.660;5.616;2023-02-15T11:48:48;102189.16;;;11.87;78.55
64544;BME280;50936;51.660;5.616;2023-02-15T11:51:18;102172.47;;;11.96;76.71
64544;BME280;50936;51.660;5.616;2023-02-15T11:53:50;102168.72;;;11.99;77.71
64544;BME280;50936;51.660;5.616;2023-02-15T11:56:21;102166.75;;;12.18;76.46
64544;BME280;50936;51.660;5.616;2023-02-15T11:59:01;102159.97;;;12.43;77.30
64544;BME280;50936;51.660;5.616;2023-02-15T12:01:40;102166.78;;;12.66;73.39
64544;BME280;50936;51.660;5.616;2023-02-15T12:04:22;102160.84;;;12.75;74.15
64544;BME280;50936;51.660;5.616;2023-02-15T12:07:13;102149.41;;;13.00;72.43
64544;BME280;50936;51.660;5.616;2023-02-15T12:10:04;102151.13;;;13.33;72.38
64544;BME280;50936;51.660;5.616;2023-02-15T12:12:40;102146.53;;;13.64;69.92
64544;BME280;50936;51.660;5.616;2023-02-15T12:15:09;102144.44;;;13.83;68.32
64544;BME280;50936;51.660;5.616;2023-02-15T12:17:55;102145.97;;;13.88;67.54
64544;BME280;50936;51.660;5.616;2023-02-15T12:20:29;102137.75;;;13.89;68.44
64544;BME280;50936;51.660;5.616;2023-02-15T12:23:12;102138.59;;;14.04;66.91
64544;BME280;50936;51.660;5.616;2023-02-15T12:25:55;102142.09;;;14.20;67.99
64544;BME280;50936;51.660;5.616;2023-02-15T12:28:34;102143.25;;;14.31;66.02
64544;BME280;50936;51.660;5.616;2023-02-15T12:31:28;102144.97;;;14.46;64.75
64544;BME280;50936;51.660;5.616;2023-02-15T12:34:09;102142.81;;;14.51;65.91
64544;BME280;50936;51.660;5.616;2023-02-15T12:36:48;102143.03;;;14.62;62.91
64544;BME280;50936;51.660;5.616;2023-02-15T12:39:30;102137.38;;;14.66;64.01
64544;BME280;50936;51.660;5.616;2023-02-15T12:42:05;102143.59;;;14.68;62.11
64544;BME280;50936;51.660;5.616;2023-02-15T12:45:03;102135.44;;;14.53;62.26
64544;BME280;50936;51.660;5.616;2023-02-15T12:47:45;102130.03;;;14.39;61.77
64544;BME280;50936;51.660;5.616;2023-02-15T12:50:22;102116.28;;;14.28;61.66
64544;BME280;50936;51.660;5.616;2023-02-15T12:53:04;102109.75;;;14.30;60.06
64544;BME280;50936;51.660;5.616;2023-02-15T12:55:34;102111.25;;;14.21;61.84
64544;BME280;50936;51.660;5.616;2023-02-15T12:58:19;102105.41;;;14.28;61.23
64544;BME280;50936;51.660;5.616;2023-02-15T13:06:47;102102.88;;;14.10;60.85
64544;BME280;50936;51.660;5.616;2023-02-15T13:09:24;102105.31;;;14.15;60.42
64544;BME280;50936;51.660;5.616;2023-02-15T13:14:54;102089.50;;;14.21;61.10
64544;BME280;50936;51.660;5.616;2023-02-15T13:17:31;102083.84;;;14.24;61.46
64544;BME280;50936;51.660;5.616;2023-02-15T13:20:04;102083.66;;;14.28;61.95
64544;BME280;50936;51.660;5.616;2023-02-15T13:22:41;102085.00;;;14.35;61.13
64544;BME280;50936;51.660;5.616;2023-02-15T13:25:25;102082.28;;;14.35;61.55
64544;BME280;50936;51.660;5.616;2023-02-15T13:28:01;102077.63;;;14.37;60.65
64544;BME280;50936;51.660;5.616;2023-02-15T13:30:32;102072.19;;;14.37;59.91
64544;BME280;50936;51.660;5.616;2023-02-15T13:33:08;102074.72;;;14.40;61.03
64544;BME280;50936;51.660;5.616;2023-02-15T13:41:45;102063.69;;;14.29;59.40
64544;BME280;50936;51.660;5.616;2023-02-15T13:47:20;102054.41;;;14.04;60.64
64544;BME280;50936;51.660;5.616;2023-02-15T13:52:56;102061.78;;;14.02;61.21
64544;BME280;50936;51.660;5.616;2023-02-15T14:11:01;102041.44;;;13.66;63.40
64544;BME280;50936;51.660;5.616;2023-02-15T14:13:54;102046.09;;;13.78;64.02
64544;BME280;50936;51.660;5.616;2023-02-15T14:22:40;102056.28;;;14.31;62.18
64544;BME280;50936;51.660;5.616;2023-02-15T14:31:43;102053.00;;;14.25;62.18
64544;BME280;50936;51.660;5.616;2023-02-15T14:34:29;102054.88;;;14.11;63.35
64544;BME280;50936;51.660;5.616;2023-02-15T14:37:06;102056.75;;;13.96;63.70
64544;BME280;50936;51.660;5.616;2023-02-15T14:42:55;102055.69;;;13.70;65.57
64544;BME280;50936;51.660;5.616;2023-02-15T14:45:38;102062.19;;;13.53;66.54
64544;BME280;50936;51.660;5.616;2023-02-15T14:54:10;102064.66;;;13.27;67.67
64544;BME280;50936;51.660;5.616;2023-02-15T14:56:45;102055.91;;;13.22;68.52
64544;BME280;50936;51.660;5.616;2023-02-15T14:59:16;102063.28;;;13.20;68.91
64544;BME280;50936;51.660;5.616;2023-02-15T15:01:56;102058.03;;;13.17;68.64
64544;BME280;50936;51.660;5.616;2023-02-15T15:04:31;102061.03;;;13.12;68.44
64544;BME280;50936;51.660;5.616;2023-02-15T15:07:03;102057.72;;;13.07;68.44
64544;BME280;50936;51.660;5.616;2023-02-15T15:09:40;102066.03;;;13.04;68.93
64544;BME280;50936;51.660;5.616;2023-02-15T15:12:39;102059.16;;;12.98;68.99
64544;BME280;50936;51.660;5.616;2023-02-15T15:15:12;102059.53;;;12.92;68.91
64544;BME280;50936;51.660;5.616;2023-02-15T15:18:06;102058.91;;;12.87;69.48
64544;BME280;50936;51.660;5.616;2023-02-15T15:31:18;102057.13;;;12.71;70.27
64544;BME280;50936;51.660;5.616;2023-02-15T15:37:09;102048.56;;;12.63;70.13
64544;BME280;50936;51.660;5.616;2023-02-15T15:43:30;102047.72;;;12.47;70.34
64544;BME280;50936;51.660;5.616;2023-02-15T15:49:12;102035.84;;;12.33;70.63
64544;BME280;50936;51.660;5.616;2023-02-15T15:51:46;102039.09;;;12.24;71.13
64544;BME280;50936;51.660;5.616;2023-02-15T15:54:23;102031.34;;;12.18;71.64
64544;BME280;50936;51.660;5.616;2023-02-15T15:56:56;102038.84;;;12.13;71.94
64544;BME280;50936;51.660;5.616;2023-02-15T15:59:29;102035.59;;;12.06;72.68
64544;BME280;50936;51.660;5.616;2023-02-15T16:02:10;102044.94;;;12.01;72.85
64544;BME280;50936;51.660;5.616;2023-02-15T16:04:45;102047.22;;;11.92;73.73
64544;BME280;50936;51.660;5.616;2023-02-15T16:07:23;102041.31;;;11.84;74.35
64544;BME280;50936;51.660;5.616;2023-02-15T16:12:38;102041.91;;;11.73;74.80
64544;BME280;50936;51.660;5.616;2023-02-15T16:17:44;102036.16;;;11.64;75.78
64544;BME280;50936;51.660;5.616;2023-02-15T16:20:26;102039.00;;;11.61;75.87
64544;BME280;50936;51.660;5.616;2023-02-15T16:28:21;102033.03;;;11.38;77.92
64544;BME280;50936;51.660;5.616;2023-02-15T16:31:04;102021.56;;;11.33;78.13
64544;BME280;50936;51.660;5.616;2023-02-15T16:33:41;102026.44;;;11.26;79.24
64544;BME280;50936;51.660;5.616;2023-02-15T16:36:23;102028.53;;;11.21;79.41